Time;durP1;ratioP1;P1;durP2;ratioP2;P2;SDS_P1;SDS_P2;PMS_P1;PMS_P2;Temp;Humidity;BMP_temperature;BMP_pressure;BME280_temperature;BME280_humidity;BME280_pressure;Samples;Min_cycle;Max_cycle;Signal;HPM_P1;HPM_P2
2022/03/05 00:00:46;;;;;;;7.55;2.10;;;;;;;9.73;55.65;101667.97;5010706;28;20084;-73
2022/03/05 00:03:13;;;;;;;7.80;1.90;;;;;;;9.59;53.40;101660.72;4994229;28;20041;-72
2022/03/05 00:05:40;;;;;;;11.70;2.00;;;;;;;9.51;54.51;101664.28;5010603;28;20034;-73
2022/03/05 00:08:07;;;;;;;8.07;2.00;;;;;;;9.45;54.97;101675.69;4995678;28;20026;-73
2022/03/05 00:10:34;;;;;;;12.18;2.38;;;;;;;9.47;55.79;101674.50;4995303;28;20034;-72
2022/03/05 00:13:00;;;;;;;9.70;2.33;;;;;;;9.44;55.50;101690.06;4994095;28;20348;-73
2022/03/05 00:15:28;;;;;;;11.88;2.13;;;;;;;9.37;55.33;101675.72;4994649;28;20052;-74
2022/03/05 00:17:55;;;;;;;8.90;2.35;;;;;;;9.32;55.32;101683.44;4995536;28;20491;-72
2022/03/05 00:20:23;;;;;;;8.40;2.75;;;;;;;9.29;54.83;101690.00;5009114;28;20065;-74
2022/03/05 00:22:52;;;;;;;5.28;1.77;;;;;;;9.23;53.38;101694.19;5003840;28;20034;-75
2022/03/05 00:25:24;;;;;;;10.45;2.50;;;;;;;9.18;54.55;101687.72;4993476;28;20026;-73
2022/03/05 00:27:50;;;;;;;11.98;2.60;;;;;;;9.13;55.29;101706.94;4991591;28;20038;-73
2022/03/05 00:30:16;;;;;;;11.38;1.95;;;;;;;9.11;54.57;101686.78;4995602;28;20026;-74
2022/03/05 00:32:43;;;;;;;20.05;2.92;;;;;;;9.03;54.60;101690.31;4993251;28;20049;-73
2022/03/05 00:35:10;;;;;;;9.40;1.73;;;;;;;9.02;55.22;101702.00;5012059;28;20037;-74
2022/03/05 00:37:37;;;;;;;15.00;2.60;;;;;;;8.95;54.77;101685.84;5009562;28;20041;-74
2022/03/05 00:40:04;;;;;;;10.02;2.70;;;;;;;8.92;54.63;101685.34;4993715;28;20084;-74
2022/03/05 00:42:30;;;;;;;13.88;2.20;;;;;;;8.90;56.41;101684.72;5007657;28;20037;-81
2022/03/05 00:44:57;;;;;;;12.57;3.42;;;;;;;8.84;56.38;101688.06;4989093;28;20034;-81
2022/03/05 00:47:23;;;;;;;9.95;2.58;;;;;;;8.83;57.04;101697.91;5014676;28;20030;-81
2022/03/05 00:49:49;;;;;;;9.90;2.78;;;;;;;8.77;58.29;101703.09;5011540;28;20034;-81
2022/03/05 00:52:15;;;;;;;13.82;2.38;;;;;;;8.77;54.51;101703.09;4994204;28;20030;-81
2022/03/05 00:54:41;;;;;;;11.70;2.80;;;;;;;8.75;55.34;101715.78;4993423;28;20477;-81
2022/03/05 00:57:08;;;;;;;14.48;3.33;;;;;;;8.65;57.38;101722.16;4996170;28;20449;-82
2022/03/05 00:59:34;;;;;;;9.82;2.75;;;;;;;8.59;57.36;101706.00;4992146;28;20502;-81
2022/03/05 01:02:00;;;;;;;13.32;2.55;;;;;;;8.58;56.68;101710.50;5007955;28;20584;-73
2022/03/05 01:04:26;;;;;;;15.38;2.40;;;;;;;8.51;57.54;101714.03;4995969;28;20071;-73
2022/03/05 01:06:52;;;;;;;7.38;2.42;;;;;;;8.39;58.06;101694.91;5010022;28;20034;-73
2022/03/05 01:09:19;;;;;;;11.00;2.50;;;;;;;8.33;57.70;101717.72;4994418;28;20328;-73
2022/03/05 01:11:45;;;;;;;10.70;2.63;;;;;;;8.24;57.39;101725.91;4993947;28;20419;-73
2022/03/05 01:14:11;;;;;;;11.80;2.83;;;;;;;8.24;57.41;101721.41;4993953;28;20022;-73
2022/03/05 01:16:37;;;;;;;9.93;2.45;;;;;;;8.19;57.99;101716.56;4993599;28;20033;-73
2022/03/05 01:19:03;;;;;;;14.73;3.00;;;;;;;8.05;58.08;101722.59;4995946;28;20109;-73
2022/03/05 01:21:30;;;;;;;14.52;2.90;;;;;;;8.02;59.63;101714.91;4994781;28;20128;-79
2022/03/05 01:23:57;;;;;;;12.85;2.60;;;;;;;7.97;57.99;101713.75;4996323;28;20105;-80
2022/03/05 01:26:23;;;;;;;8.50;2.13;;;;;;;7.98;57.85;101705.59;4994068;28;20045;-79
2022/03/05 01:28:49;;;;;;;13.57;2.75;;;;;;;7.90;58.89;101700.28;5010696;28;20080;-81
2022/03/05 01:31:15;;;;;;;9.73;2.60;;;;;;;7.88;59.41;101699.59;5011621;28;20030;-80
2022/03/05 01:33:42;;;;;;;9.32;2.55;;;;;;;7.77;58.81;101719.41;4997249;28;20030;-79
2022/03/05 01:36:08;;;;;;;12.85;2.60;;;;;;;7.76;59.55;101719.59;4996446;28;20030;-80
2022/03/05 01:38:34;;;;;;;16.50;3.15;;;;;;;7.66;59.73;101709.06;4998359;28;20026;-78
2022/03/05 01:41:00;;;;;;;11.93;2.65;;;;;;;7.62;59.51;101713.91;4990551;28;20524;-73
2022/03/05 01:43:26;;;;;;;6.47;2.28;;;;;;;7.60;60.04;101726.56;4994296;28;20452;-73
2022/03/05 01:45:53;;;;;;;12.15;2.60;;;;;;;7.44;61.74;101723.91;4994348;28;20026;-73
2022/03/05 01:48:19;;;;;;;8.20;2.28;;;;;;;7.38;60.91;101738.69;4994202;28;20457;-73
2022/03/05 01:50:47;;;;;;;8.90;2.40;;;;;;;7.39;60.66;101734.19;5005170;28;20038;-74
2022/03/05 01:53:14;;;;;;;11.07;2.90;;;;;;;7.32;61.60;101741.97;5004460;28;20091;-74
2022/03/05 01:55:41;;;;;;;19.58;4.38;;;;;;;7.28;61.32;101743.34;4993609;28;20026;-73
2022/03/05 01:58:08;;;;;;;15.77;4.03;;;;;;;7.30;62.13;101751.16;4993547;28;20034;-73
2022/03/05 02:00:34;;;;;;;14.90;3.17;;;;;;;7.17;62.78;101753.44;4994342;28;20022;-80
2022/03/05 02:03:01;;;;;;;10.43;3.92;;;;;;;7.07;64.71;101749.06;4995633;28;20026;-81
2022/03/05 02:05:27;;;;;;;13.27;2.63;;;;;;;6.99;64.51;101743.72;4995247;28;20368;-80
2022/03/05 02:07:54;;;;;;;13.30;2.70;;;;;;;7.13;62.60;101735.13;4994850;28;20030;-80
2022/03/05 02:10:20;;;;;;;13.38;3.08;;;;;;;7.18;63.38;101757.78;4996301;28;20027;-80
2022/03/05 02:12:46;;;;;;;9.57;2.95;;;;;;;7.13;62.93;101761.75;4996505;28;20048;-79
2022/03/05 02:15:12;;;;;;;12.30;4.40;;;;;;;7.05;63.40;101764.38;4994352;28;20026;-80
2022/03/05 02:17:39;;;;;;;11.93;3.55;;;;;;;7.09;62.94;101762.22;5008962;28;20228;-80
2022/03/05 02:20:07;;;;;;;7.35;2.15;;;;;;;7.00;63.84;101771.19;4990533;28;20106;-81
2022/03/05 02:22:33;;;;;;;11.60;2.55;;;;;;;7.06;63.56;101768.72;4990150;28;20084;-73
2022/03/05 02:25:02;;;;;;;10.85;2.50;;;;;;;7.05;64.61;101772.38;5005670;28;20030;-73
2022/03/05 02:27:31;;;;;;;14.35;2.80;;;;;;;6.99;64.84;101785.47;4991577;28;20030;-74
2022/03/05 02:29:57;;;;;;;9.73;2.50;;;;;;;6.96;64.82;101777.81;5007118;28;20026;-74
2022/03/05 02:32:24;;;;;;;12.32;2.67;;;;;;;6.98;64.65;101789.97;4990334;28;20022;-74
2022/03/05 02:34:50;;;;;;;9.40;2.20;;;;;;;6.98;64.74;101779.31;4991313;28;20360;-74
2022/03/05 02:37:18;;;;;;;7.85;2.42;;;;;;;6.97;65.28;101793.63;4992703;28;20893;-73
2022/03/05 02:39:45;;;;;;;14.85;3.10;;;;;;;6.93;65.44;101794.09;4991530;28;20445;-74
2022/03/05 02:42:15;;;;;;;7.85;3.15;;;;;;;6.93;65.76;101791.44;4993032;28;20026;-74
2022/03/05 02:44:43;;;;;;;12.82;3.45;;;;;;;6.95;65.91;101798.28;4992458;28;20045;-74
2022/03/05 02:47:09;;;;;;;11.68;3.17;;;;;;;6.87;67.00;101803.53;4991528;28;20030;-74
2022/03/05 02:49:36;;;;;;;15.07;3.05;;;;;;;6.82;65.99;101790.69;4993755;28;20134;-74
2022/03/05 02:52:03;;;;;;;11.10;3.25;;;;;;;6.83;66.29;101795.06;4989832;28;20038;-74
2022/03/05 02:54:29;;;;;;;13.05;3.42;;;;;;;6.73;66.13;101804.13;4992504;28;20053;-74
2022/03/05 02:56:56;;;;;;;10.65;2.95;;;;;;;6.77;64.75;101813.47;4992028;28;20026;-74
2022/03/05 02:59:22;;;;;;;11.73;2.30;;;;;;;6.83;63.68;101804.88;4992749;28;20022;-74
2022/03/05 03:01:48;;;;;;;8.98;2.08;;;;;;;6.81;63.52;101820.13;4991282;28;20030;-74
2022/03/05 03:04:14;;;;;;;8.18;2.13;;;;;;;6.88;63.02;101821.16;4992559;28;20030;-74
2022/03/05 03:06:40;;;;;;;10.18;2.78;;;;;;;6.85;63.76;101816.19;4991875;28;20065;-74
2022/03/05 03:09:06;;;;;;;9.98;2.88;;;;;;;6.80;63.93;101827.28;4991725;28;20034;-75
2022/03/05 03:11:33;;;;;;;13.35;2.35;;;;;;;6.88;64.52;101826.50;4990803;28;20022;-74
2022/03/05 03:13:59;;;;;;;12.52;2.85;;;;;;;6.95;64.44;101832.88;4991367;28;20116;-74
2022/03/05 03:16:25;;;;;;;12.65;2.67;;;;;;;6.94;64.43;101839.19;4987246;28;20034;-73
2022/03/05 03:18:51;;;;;;;10.13;2.72;;;;;;;6.88;66.34;101845.13;5007560;28;20030;-74
2022/03/05 03:21:17;;;;;;;10.30;2.80;;;;;;;6.93;65.85;101845.50;5008788;28;20041;-82
2022/03/05 03:23:44;;;;;;;10.70;2.80;;;;;;;7.08;64.79;101851.91;4991219;28;20338;-82
2022/03/05 03:26:10;;;;;;;8.63;2.80;;;;;;;6.98;65.93;101850.34;4991733;28;20085;-83
2022/03/05 03:28:36;;;;;;;17.92;3.47;;;;;;;6.92;67.08;101851.81;4992847;28;20046;-82
2022/03/05 03:31:02;;;;;;;12.57;2.45;;;;;;;6.88;66.40;101853.97;4988826;28;20037;-82
2022/03/05 03:33:28;;;;;;;10.20;2.53;;;;;;;6.90;66.92;101861.78;4991674;28;20033;-82
2022/03/05 03:35:55;;;;;;;15.23;2.30;;;;;;;6.94;66.95;101865.81;5005494;28;20034;-81
2022/03/05 03:38:21;;;;;;;17.45;2.80;;;;;;;6.92;67.15;101849.16;4995648;28;20120;-82
2022/03/05 03:40:47;;;;;;;12.13;3.63;;;;;;;6.90;66.88;101861.78;4993759;28;20137;-74
2022/03/05 03:43:13;;;;;;;16.80;5.85;;;;;;;6.78;68.26;101842.59;4990078;28;20479;-76
2022/03/05 03:45:39;;;;;;;8.35;2.95;;;;;;;6.68;68.55;101846.34;4993643;28;20408;-77
2022/03/05 03:48:06;;;;;;;9.63;2.85;;;;;;;6.67;68.31;101847.34;4994246;28;20034;-77
2022/03/05 03:50:32;;;;;;;9.30;2.80;;;;;;;6.64;68.25;101844.97;5010185;28;20461;-76
2022/03/05 03:52:58;;;;;;;12.75;3.25;;;;;;;6.52;69.85;101853.22;4992877;28;20030;-77
2022/03/05 03:55:25;;;;;;;10.02;3.13;;;;;;;6.58;69.66;101854.41;4993133;28;20044;-77
2022/03/05 03:57:51;;;;;;;8.07;2.63;;;;;;;6.68;69.38;101851.66;4993671;28;20141;-77
2022/03/05 04:00:19;;;;;;;12.00;3.22;;;;;;;6.72;69.54;101845.88;4991788;28;20077;-76
2022/03/05 04:02:46;;;;;;;18.67;2.67;;;;;;;6.59;69.46;101854.25;4992911;28;20460;-76
2022/03/05 04:05:12;;;;;;;11.85;2.72;;;;;;;6.54;70.35;101848.56;4994165;28;20034;-76
2022/03/05 04:10:23;;;;;;;15.07;3.20;;;;;;;6.52;70.47;101849.72;4994128;28;20033;-76
2022/03/05 04:12:50;;;;;;;18.13;3.22;;;;;;;6.61;69.79;101852.28;5009313;28;20112;-76
2022/03/05 04:15:17;;;;;;;8.73;2.47;;;;;;;6.59;69.05;101840.94;4993816;28;20026;-77
2022/03/05 04:17:44;;;;;;;16.00;3.00;;;;;;;6.65;68.38;101831.50;4994224;28;20027;-76
2022/03/05 04:20:11;;;;;;;16.27;3.15;;;;;;;6.55;68.82;101842.28;5008968;28;20158;-76
2022/03/05 04:22:37;;;;;;;17.17;3.35;;;;;;;6.51;68.48;101837.41;4992565;28;20044;-76
2022/03/05 04:25:04;;;;;;;13.60;2.53;;;;;;;6.49;68.33;101834.06;5009054;28;20041;-76
2022/03/05 04:27:30;;;;;;;9.85;3.13;;;;;;;6.43;68.41;101826.69;4993247;28;20452;-77
2022/03/05 04:30:14;;;;;;;9.75;2.97;;;;;;;6.46;67.59;101815.75;4996122;28;20081;-76
2022/03/05 04:32:41;;;;;;;11.43;2.28;;;;;;;6.50;67.73;101817.13;4998167;28;20038;-77
2022/03/05 04:35:08;;;;;;;12.02;2.72;;;;;;;6.69;66.62;101816.09;4996817;28;20109;-77
2022/03/05 04:37:35;;;;;;;9.43;2.90;;;;;;;6.77;68.01;101814.28;4997180;28;20121;-76
2022/03/05 04:40:02;;;;;;;9.27;2.45;;;;;;;7.13;65.71;101804.34;4995734;28;20026;-77
2022/03/05 04:42:28;;;;;;;9.25;2.33;;;;;;;7.23;64.48;101808.72;5009927;28;20042;-76
2022/03/05 04:44:54;;;;;;;6.05;2.25;;;;;;;7.10;65.14;101807.31;4996031;28;20417;-76
2022/03/05 04:47:21;;;;;;;10.23;2.45;;;;;;;7.11;65.34;101805.50;4999866;28;20034;-77
2022/03/05 04:49:47;;;;;;;9.30;2.70;;;;;;;6.95;65.53;101798.28;4996177;28;20511;-76
2022/03/05 04:52:13;;;;;;;12.95;3.10;;;;;;;6.97;65.28;101798.09;5011523;28;20121;-76
2022/03/05 04:54:39;;;;;;;10.45;2.30;;;;;;;6.98;65.89;101789.97;4996972;28;20049;-77
2022/03/05 04:57:06;;;;;;;6.97;2.20;;;;;;;7.03;65.72;101792.16;4995676;28;20033;-76
2022/03/05 04:59:32;;;;;;;12.48;2.70;;;;;;;6.85;67.42;101785.06;4992769;28;20030;-77
2022/03/05 05:01:58;;;;;;;7.18;1.92;;;;;;;6.86;66.78;101791.22;4996629;28;20030;-76
2022/03/05 05:04:25;;;;;;;7.45;2.05;;;;;;;6.87;66.25;101796.38;5006638;28;20080;-76
2022/03/05 05:06:51;;;;;;;7.25;1.63;;;;;;;6.75;66.21;101794.16;4996544;28;20465;-76
2022/03/05 05:09:17;;;;;;;9.30;1.73;;;;;;;6.76;65.95;101787.84;4995405;28;20062;-77
2022/03/05 05:11:44;;;;;;;10.50;1.95;;;;;;;6.65;67.20;101790.78;5004468;28;20034;-76
2022/03/05 05:14:10;;;;;;;9.15;1.77;;;;;;;6.54;67.54;101787.38;5003048;28;21513;-76
2022/03/05 05:16:37;;;;;;;7.63;1.55;;;;;;;6.60;66.79;101781.44;4995659;28;20143;-77
2022/03/05 05:21:49;;;;;;;13.02;2.15;;;;;;;6.51;67.67;101782.38;4995295;28;20045;-76
2022/03/05 05:24:15;;;;;;;9.02;2.33;;;;;;;6.44;68.72;101785.81;4995030;28;20056;-76
2022/03/05 05:26:41;;;;;;;9.52;2.10;;;;;;;6.59;67.68;101784.25;4996447;28;20026;-77
2022/03/05 05:29:08;;;;;;;8.88;2.10;;;;;;;6.68;68.53;101785.16;5008490;28;20117;-76
2022/03/05 05:31:34;;;;;;;8.68;2.17;;;;;;;6.84;69.01;101793.22;4994511;28;20053;-77
2022/03/05 05:34:00;;;;;;;9.02;2.50;;;;;;;7.07;67.52;101804.16;5010272;28;20376;-76
2022/03/05 05:36:26;;;;;;;13.82;2.80;;;;;;;7.34;68.08;101821.75;4995065;28;20430;-76
2022/03/05 05:38:52;;;;;;;12.65;2.88;;;;;;;7.39;72.12;101840.75;4995015;28;20097;-77
2022/03/05 05:41:18;;;;;;;4.65;1.45;;;;;;;7.10;74.67;101855.22;4990253;28;20030;-79
2022/03/05 05:43:45;;;;;;;9.10;1.80;;;;;;;6.76;78.68;101891.63;4991501;28;20026;-77
2022/03/05 05:46:12;;;;;;;3.58;0.68;;;;;;;6.45;77.86;101868.13;4993112;28;20030;-78
2022/03/05 05:48:38;;;;;;;5.75;1.05;;;;;;;6.43;79.43;101845.31;4995710;28;20061;-78
2022/03/05 05:51:05;;;;;;;2.50;0.73;;;;;;;6.12;80.49;101840.41;5011297;28;20449;-78
2022/03/05 05:53:31;;;;;;;9.55;3.97;;;;;;;5.95;81.47;101825.31;4996149;28;20057;-77
2022/03/05 05:55:57;;;;;;;46.67;22.27;;;;;;;5.75;82.80;101819.25;4996154;28;20057;-77
2022/03/05 05:58:23;;;;;;;23.42;11.02;;;;;;;5.53;83.65;101808.06;4995837;28;20033;-78
2022/03/05 06:00:50;;;;;;;4.93;2.25;;;;;;;5.38;84.19;101793.63;5011056;28;20034;-78
2022/03/05 06:03:17;;;;;;;4.55;1.50;;;;;;;5.21;84.11;101774.00;4996008;28;20057;-78
2022/03/05 06:05:44;;;;;;;3.10;1.15;;;;;;;5.16;84.86;101762.16;4994033;28;20034;-78
2022/03/05 06:08:10;;;;;;;4.38;0.75;;;;;;;5.06;85.13;101762.25;4994608;28;20072;-78
2022/03/05 06:10:36;;;;;;;3.25;0.98;;;;;;;5.11;85.10;101752.03;4994472;28;20429;-78
2022/03/05 06:13:02;;;;;;;2.67;0.63;;;;;;;5.11;84.37;101748.50;4995448;28;20134;-78
2022/03/05 06:15:28;;;;;;;2.75;0.50;;;;;;;5.08;84.61;101740.84;5001231;28;20026;-78
2022/03/05 06:17:56;;;;;;;2.40;0.93;;;;;;;5.00;84.86;101738.94;4994116;28;20125;-78
2022/03/05 06:20:24;;;;;;;3.63;0.70;;;;;;;4.93;84.94;101741.34;5008409;28;20030;-78
2022/03/05 06:22:50;;;;;;;2.28;0.70;;;;;;;5.00;84.34;101731.00;4995732;28;20042;-78
2022/03/05 06:25:20;;;;;;;3.70;0.77;;;;;;;4.93;84.33;101729.88;5010724;28;20034;-78
2022/03/05 06:27:46;;;;;;;2.88;0.63;;;;;;;4.97;84.45;101739.22;4995360;28;20143;-78
2022/03/05 06:30:13;;;;;;;5.85;1.23;;;;;;;4.93;85.30;101737.84;4995208;28;20061;-78
2022/03/05 06:32:39;;;;;;;2.83;1.10;;;;;;;4.83;85.94;101740.56;5013376;28;20141;-78
2022/03/05 06:35:06;;;;;;;5.63;1.08;;;;;;;4.92;85.53;101746.78;4994544;28;20078;-78
2022/03/05 06:37:33;;;;;;;6.05;1.95;;;;;;;4.81;87.27;101755.78;4994249;28;20030;-78
2022/03/05 06:39:59;;;;;;;4.43;1.50;;;;;;;4.93;87.66;101759.91;5009373;28;20049;-75
2022/03/05 06:42:26;;;;;;;6.43;1.60;;;;;;;5.16;87.91;101765.66;4993343;28;20353;-76
2022/03/05 06:44:52;;;;;;;8.02;1.63;;;;;;;5.36;87.51;101777.00;4994752;28;20026;-75
2022/03/05 06:47:18;;;;;;;10.48;2.08;;;;;;;5.48;86.95;101773.16;4994848;28;20026;-77
2022/03/05 06:49:44;;;;;;;4.32;1.30;;;;;;;5.69;84.91;101772.03;4993594;28;20038;-74
2022/03/05 06:52:10;;;;;;;7.53;1.13;;;;;;;5.70;85.74;101777.19;5008888;28;20038;-74
2022/03/05 06:54:37;;;;;;;7.70;1.20;;;;;;;5.94;83.60;101789.94;4992031;28;20041;-75
2022/03/05 06:57:05;;;;;;;6.55;1.05;;;;;;;6.05;83.52;101784.38;4993178;28;20498;-75
2022/03/05 06:59:31;;;;;;;3.00;1.00;;;;;;;6.25;82.92;101789.50;4992923;28;20101;-74
2022/03/05 07:01:58;;;;;;;5.80;1.38;;;;;;;6.06;83.81;101799.31;4993843;28;20030;-74
2022/03/05 07:04:24;;;;;;;6.07;1.45;;;;;;;6.35;80.02;101790.25;4992465;28;20041;-74
2022/03/05 07:06:50;;;;;;;6.20;1.25;;;;;;;6.27;81.56;101784.84;4993581;28;20045;-74
2022/03/05 07:09:16;;;;;;;4.72;1.25;;;;;;;6.40;81.80;101777.31;4992246;28;20858;-74
2022/03/05 07:11:43;;;;;;;4.38;0.90;;;;;;;6.45;81.48;101767.06;5008036;28;20475;-74
2022/03/05 07:14:09;;;;;;;4.68;0.90;;;;;;;6.34;81.21;101762.81;4992036;28;20113;-74
2022/03/05 07:16:35;;;;;;;4.35;1.20;;;;;;;6.32;82.21;101753.31;4992869;28;20034;-74
2022/03/05 07:19:02;;;;;;;5.70;1.48;;;;;;;6.29;81.45;101749.16;4992795;28;20030;-74
2022/03/05 07:21:28;;;;;;;9.27;1.90;;;;;;;6.41;82.88;101751.56;4992383;28;20073;-75
2022/03/05 07:23:54;;;;;;;8.65;1.60;;;;;;;6.38;83.17;101749.19;4993387;28;20026;-74
2022/03/05 07:26:20;;;;;;;7.47;1.30;;;;;;;6.53;83.24;101747.66;4993071;28;20453;-74
2022/03/05 07:28:46;;;;;;;6.82;2.03;;;;;;;6.45;84.13;101743.13;4992744;28;20038;-74
2022/03/05 07:31:13;;;;;;;6.07;1.48;;;;;;;6.55;83.10;101727.91;4991627;28;20034;-74
2022/03/05 07:33:39;;;;;;;6.45;1.10;;;;;;;6.51;83.42;101731.84;4992008;28;20057;-74
2022/03/05 07:36:05;;;;;;;8.85;1.95;;;;;;;6.24;82.39;101727.53;5008280;28;20046;-74
2022/03/05 07:38:32;;;;;;;3.63;1.30;;;;;;;6.21;82.55;101727.00;4991298;28;21655;-74
2022/03/05 07:40:58;;;;;;;8.95;1.75;;;;;;;6.07;82.82;101721.25;4992157;28;20061;-74
2022/03/05 07:43:24;;;;;;;8.00;1.45;;;;;;;5.91;82.41;101720.28;5007083;28;20028;-75
2022/03/05 07:45:51;;;;;;;6.72;1.30;;;;;;;5.70;82.78;101723.25;4991533;28;20108;-74
2022/03/05 07:48:21;;;;;;;5.47;1.20;;;;;;;5.60;83.79;101728.63;4991944;28;20045;-74
2022/03/05 07:50:48;;;;;;;5.18;1.35;;;;;;;5.65;83.00;101728.16;4993010;28;20022;-73
2022/03/05 07:53:15;;;;;;;10.60;1.40;;;;;;;5.46;83.91;101734.47;4992594;28;20429;-74
2022/03/05 07:55:42;;;;;;;7.10;1.50;;;;;;;5.39;84.29;101757.31;4992731;28;20096;-74
2022/03/05 07:58:08;;;;;;;6.40;1.17;;;;;;;5.49;83.34;101753.56;5008264;28;20030;-74
2022/03/05 08:00:34;;;;;;;8.30;1.20;;;;;;;5.59;82.46;101760.66;4991123;28;20086;-74
2022/03/05 08:03:00;;;;;;;4.00;1.20;;;;;;;5.73;82.18;101760.13;4995224;28;20036;-77
2022/03/05 08:05:27;;;;;;;3.45;0.70;;;;;;;5.76;80.99;101743.88;4997549;28;20103;-77
2022/03/05 08:07:57;;;;;;;3.15;1.00;;;;;;;5.72;81.98;101745.16;4997562;28;20113;-77
2022/03/05 08:10:23;;;;;;;4.97;0.95;;;;;;;5.93;81.35;101755.50;4995498;28;20026;-78
2022/03/05 08:12:50;;;;;;;1.45;0.60;;;;;;;5.90;80.42;101753.97;4997297;28;20046;-77
2022/03/05 08:15:16;;;;;;;2.35;0.75;;;;;;;5.94;80.10;101754.53;4997459;28;20088;-78
2022/03/05 08:18:00;;;;;;;3.08;0.77;;;;;;;5.87;79.53;101751.63;5004193;28;20026;-77
2022/03/05 08:20:29;;;;;;;3.05;0.90;;;;;;;5.84;80.04;101757.25;5015121;28;20145;-78
2022/03/05 08:22:56;;;;;;;5.28;0.85;;;;;;;5.77;78.74;101753.50;4995750;28;20460;-74
2022/03/05 08:25:23;;;;;;;2.63;0.75;;;;;;;5.66;78.42;101759.88;4996006;28;20113;-74
2022/03/05 08:27:49;;;;;;;3.30;1.00;;;;;;;5.55;80.38;101753.00;4996584;28;20381;-74
2022/03/05 08:30:16;;;;;;;2.50;0.80;;;;;;;5.48;79.85;101751.91;4993452;28;20084;-74
2022/03/05 08:32:43;;;;;;;4.63;1.00;;;;;;;5.44;80.58;101750.56;4996674;28;20026;-74
2022/03/05 08:35:10;;;;;;;1.98;0.65;;;;;;;5.31;81.48;101755.38;4996491;28;20026;-74
2022/03/05 08:37:38;;;;;;;3.28;0.90;;;;;;;5.29;81.19;101752.06;4996386;28;20388;-74
2022/03/05 08:40:06;;;;;;;5.00;0.75;;;;;;;5.14;82.87;101753.53;4996024;28;20073;-74
2022/03/05 08:42:32;;;;;;;4.18;0.77;;;;;;;5.15;82.11;101756.03;4995815;28;20042;-74
2022/03/05 08:44:59;;;;;;;4.82;0.73;;;;;;;5.10;82.66;101749.50;4996239;28;20342;-74
2022/03/05 08:47:25;;;;;;;5.22;0.80;;;;;;;4.97;83.38;101742.72;4996144;28;20022;-74
2022/03/05 08:49:51;;;;;;;6.82;1.08;;;;;;;5.03;83.20;101747.44;4995381;28;20496;-74
2022/03/05 08:52:17;;;;;;;3.60;0.95;;;;;;;5.16;83.05;101748.91;4996245;28;20369;-74
2022/03/05 08:54:43;;;;;;;2.83;1.20;;;;;;;5.28;81.71;101748.56;4995693;28;20037;-74
2022/03/05 08:57:11;;;;;;;3.95;1.05;;;;;;;5.38;81.68;101755.63;4995904;28;20114;-74
2022/03/05 08:59:38;;;;;;;6.13;0.93;;;;;;;5.30;80.73;101765.16;4993628;28;20037;-74
2022/03/05 09:02:06;;;;;;;5.55;0.90;;;;;;;5.24;80.73;101756.97;5010626;28;20361;-74
2022/03/05 09:04:32;;;;;;;4.00;0.90;;;;;;;5.25;79.69;101751.50;4992700;28;20384;-74
2022/03/05 09:06:59;;;;;;;3.33;0.88;;;;;;;5.23;80.50;101747.34;4993667;28;20530;-74
2022/03/05 09:09:26;;;;;;;4.00;0.60;;;;;;;5.12;80.00;101743.06;4994036;28;20034;-74
2022/03/05 09:11:52;;;;;;;5.57;0.85;;;;;;;5.07;80.15;101737.38;4994047;28;20034;-74
2022/03/05 09:14:18;;;;;;;2.20;0.60;;;;;;;5.12;80.47;101745.72;4995174;28;20034;-74
2022/03/05 09:16:45;;;;;;;6.28;1.23;;;;;;;4.90;81.20;101746.13;5008773;28;20037;-74
2022/03/05 09:19:11;;;;;;;7.25;0.98;;;;;;;4.83;81.06;101748.53;4994048;28;20030;-74
2022/03/05 09:21:37;;;;;;;4.93;1.00;;;;;;;4.84;82.11;101747.53;5009680;28;20069;-74
2022/03/05 09:24:06;;;;;;;6.00;1.10;;;;;;;4.91;81.13;101761.88;4995210;28;20034;-74
2022/03/05 09:26:33;;;;;;;2.88;1.08;;;;;;;5.13;81.06;101760.66;4993896;28;20034;-74
2022/03/05 09:28:59;;;;;;;3.33;0.95;;;;;;;5.20;79.44;101764.38;5001860;28;20038;-74
2022/03/05 09:31:25;;;;;;;3.38;0.80;;;;;;;5.14;80.31;101758.84;4994438;28;20026;-74
2022/03/05 09:33:51;;;;;;;4.00;0.70;;;;;;;5.26;78.95;101755.00;4993147;28;20106;-74
2022/03/05 09:36:18;;;;;;;4.95;1.08;;;;;;;5.36;79.82;101741.66;4992973;28;20092;-74
2022/03/05 09:38:44;;;;;;;4.10;0.88;;;;;;;5.45;78.66;101738.94;4994091;28;20030;-75
2022/03/05 09:41:10;;;;;;;3.25;1.20;;;;;;;5.28;78.91;101745.06;4994450;28;20030;-74
2022/03/05 09:43:37;;;;;;;4.63;1.25;;;;;;;5.14;78.47;101740.25;4993713;28;20042;-74
2022/03/05 09:46:03;;;;;;;5.03;1.25;;;;;;;5.13;79.05;101741.25;4994027;28;20114;-74
2022/03/05 09:48:30;;;;;;;4.18;0.85;;;;;;;5.07;78.85;101736.53;4992909;28;20365;-74
2022/03/05 09:50:59;;;;;;;4.15;1.33;;;;;;;5.02;79.35;101740.47;4992793;28;20042;-74
2022/03/05 09:53:32;;;;;;;3.78;1.08;;;;;;;4.97;81.03;101745.38;4993176;28;20024;-74
2022/03/05 09:55:59;;;;;;;3.72;1.48;;;;;;;4.95;80.92;101736.72;4993507;28;20465;-74
2022/03/05 09:58:25;;;;;;;6.15;1.30;;;;;;;4.90;80.70;101728.38;4993590;28;20505;-74
2022/03/05 10:00:51;;;;;;;4.38;1.50;;;;;;;4.91;82.06;101723.91;4993737;28;20033;-74
2022/03/05 10:03:18;;;;;;;8.48;1.70;;;;;;;4.81;82.15;101729.25;5008757;28;20022;-74
2022/03/05 10:05:44;;;;;;;5.80;1.85;;;;;;;4.80;83.07;101724.09;4992332;28;20034;-74
2022/03/05 10:08:20;;;;;;;10.38;1.80;;;;;;;5.01;81.40;101722.03;4993127;28;20037;-74
2022/03/05 10:10:56;;;;;;;10.35;1.55;;;;;;;4.93;81.28;101713.97;4991478;28;20038;-74
2022/03/05 10:13:31;;;;;;;6.70;1.27;;;;;;;4.90;80.27;101707.16;5008600;28;20023;-74
2022/03/05 10:16:03;;;;;;;9.40;1.98;;;;;;;5.00;79.62;101705.28;4993334;28;20028;-76
2022/03/05 10:18:34;;;;;;;3.60;1.15;;;;;;;4.92;80.00;101704.34;5001089;28;20096;-76
2022/03/05 10:21:05;;;;;;;8.98;2.13;;;;;;;4.96;79.38;101697.78;4992975;28;20034;-78
2022/03/05 10:23:36;;;;;;;4.63;1.23;;;;;;;4.87;79.24;101706.59;5007638;28;20061;-78
2022/03/05 10:26:05;;;;;;;10.15;1.58;;;;;;;4.98;76.64;101706.41;4993217;28;20034;-78
2022/03/05 10:28:32;;;;;;;6.88;1.25;;;;;;;4.97;77.15;101721.50;4995112;28;20034;-78
2022/03/05 10:31:07;;;;;;;5.82;1.60;;;;;;;4.83;77.70;101714.03;4998688;28;20405;-78
2022/03/05 10:33:43;;;;;;;6.63;1.40;;;;;;;4.81;78.07;101715.16;4990614;28;20026;-77
2022/03/05 10:36:21;;;;;;;4.80;1.55;;;;;;;4.84;78.27;101710.41;4994500;28;20473;-78
2022/03/05 10:38:51;;;;;;;4.47;1.50;;;;;;;4.84;79.04;101710.41;5002333;28;20026;-78
2022/03/05 10:41:36;;;;;;;4.65;2.10;;;;;;;4.95;78.50;101714.69;4994429;28;20026;-78
2022/03/05 10:44:15;;;;;;;4.93;1.45;;;;;;;4.95;78.78;101718.16;4993801;28;20044;-78
2022/03/05 10:46:44;;;;;;;8.48;1.65;;;;;;;4.92;78.91;101718.44;4993411;28;20038;-78
2022/03/05 10:49:26;;;;;;;10.18;1.63;;;;;;;4.91;79.38;101718.59;4993499;28;20096;-78
2022/03/05 10:52:04;;;;;;;8.43;1.20;;;;;;;4.86;79.80;101719.03;4994248;28;20054;-78
2022/03/05 10:54:43;;;;;;;10.95;1.77;;;;;;;4.86;80.01;101719.03;4994365;28;20109;-78
2022/03/05 10:57:15;;;;;;;5.43;1.30;;;;;;;4.73;80.76;101721.19;4994925;28;20452;-77
2022/03/05 10:59:44;;;;;;;5.97;1.50;;;;;;;4.65;80.89;101706.00;4993715;28;20034;-77
2022/03/05 11:02:12;;;;;;;8.80;1.58;;;;;;;4.62;81.50;101703.66;4992581;28;20037;-75
2022/03/05 11:04:42;;;;;;;5.47;1.40;;;;;;;4.51;82.05;101711.78;4993765;28;20109;-75
2022/03/05 11:07:09;;;;;;;5.15;1.50;;;;;;;4.50;81.03;101708.31;4994174;28;20058;-75
2022/03/05 11:09:37;;;;;;;3.70;1.40;;;;;;;4.48;80.60;101710.25;4992988;28;20030;-74
2022/03/05 11:12:07;;;;;;;3.50;0.93;;;;;;;4.51;79.50;101701.19;4993999;28;20088;-75
2022/03/05 11:14:34;;;;;;;4.85;1.17;;;;;;;4.55;79.03;101699.06;4993712;28;20037;-76
2022/03/05 11:17:00;;;;;;;2.97;1.10;;;;;;;4.67;77.25;101708.53;4993600;28;20124;-75
2022/03/05 11:19:28;;;;;;;4.57;1.00;;;;;;;4.57;77.91;101697.13;4993660;28;20023;-75
2022/03/05 11:21:54;;;;;;;6.22;1.30;;;;;;;4.50;77.81;101700.34;5008711;28;20033;-75
2022/03/05 11:24:21;;;;;;;7.00;1.23;;;;;;;4.55;77.46;101709.66;5008316;28;20049;-75
2022/03/05 11:26:55;;;;;;;7.35;1.17;;;;;;;4.52;78.29;101721.41;4992509;28;20073;-74
2022/03/05 11:29:26;;;;;;;5.43;1.15;;;;;;;4.39;79.62;101705.00;4993114;28;20045;-74
2022/03/05 11:32:09;;;;;;;6.38;1.30;;;;;;;4.41;79.31;101711.81;4993486;28;20117;-74
2022/03/05 11:34:44;;;;;;;7.10;1.42;;;;;;;4.61;78.80;101714.38;4992258;28;20038;-75
2022/03/05 11:37:36;;;;;;;7.97;1.35;;;;;;;4.74;77.69;101714.91;4991817;28;20030;-75